createdAt,value
2022-08-29T00:02:23.703Z,98282.00
2022-08-29T00:06:26.071Z,98269.00
2022-08-29T00:10:29.072Z,98260.00
2022-08-29T00:14:30.666Z,98261.00
2022-08-29T00:18:32.571Z,98259.00
2022-08-29T00:22:38.677Z,98267.00
2022-08-29T00:26:41.001Z,98266.00
2022-08-29T00:30:45.012Z,98265.00
2022-08-29T00:34:50.886Z,98280.00
2022-08-29T00:38:52.487Z,98273.00
2022-08-29T00:42:54.556Z,98269.00
2022-08-29T00:46:58.244Z,98264.00
2022-08-29T00:51:03.056Z,98273.00
2022-08-29T00:55:09.926Z,98284.00
2022-08-29T00:59:23.840Z,98282.00
2022-08-29T01:03:29.267Z,98281.00
2022-08-29T01:07:30.560Z,98278.00
2022-08-29T01:11:50.605Z,98281.00
2022-08-29T01:15:52.354Z,98288.00
2022-08-29T01:20:16.999Z,98283.00
2022-08-29T01:24:33.760Z,98285.00
2022-08-29T01:28:38.680Z,98284.00
2022-08-29T01:32:40.090Z,98275.00
2022-08-29T01:36:49.174Z,98289.00
2022-08-29T01:40:50.224Z,98289.00
2022-08-29T01:44:57.179Z,98281.00
2022-08-29T01:49:01.577Z,98274.00
2022-08-29T01:53:02.592Z,98279.00
2022-08-29T01:57:03.953Z,98291.00
2022-08-29T02:01:05.952Z,98295.00
2022-08-29T02:05:07.897Z,98294.00
2022-08-29T02:09:11.190Z,98295.00
2022-08-29T02:13:13.013Z,98292.00
2022-08-29T02:17:14.418Z,98278.00
2022-08-29T02:21:17.898Z,98294.00
2022-08-29T02:25:39.353Z,98295.00
2022-08-29T02:29:40.533Z,98293.00
2022-08-29T02:33:41.536Z,98290.00
2022-08-29T02:37:42.652Z,98290.00
2022-08-29T02:41:44.427Z,98289.00
2022-08-29T02:45:46.141Z,98304.00
2022-08-29T02:49:47.130Z,98299.00
2022-08-29T02:53:50.143Z,98293.00
2022-08-29T02:57:52.458Z,98292.00
2022-08-29T03:01:53.412Z,98298.00
2022-08-29T03:05:56.054Z,98291.00
2022-08-29T03:09:57.180Z,98306.00
2022-08-29T03:13:58.177Z,98289.00
2022-08-29T03:17:59.298Z,98292.00
2022-08-29T03:22:00.591Z,98293.00
2022-08-29T03:26:01.872Z,98297.00
2022-08-29T03:30:05.153Z,98293.00
2022-08-29T03:34:06.341Z,98298.00
2022-08-29T03:38:07.566Z,98288.00
2022-08-29T03:42:08.868Z,98303.00
2022-08-29T03:46:10.142Z,98287.00
2022-08-29T03:50:14.492Z,98314.00
2022-08-29T03:54:15.983Z,98295.00
2022-08-29T03:58:17.482Z,98292.00
2022-08-29T04:02:18.698Z,98298.00
2022-08-29T04:06:21.712Z,98313.00
2022-08-29T04:10:29.428Z,98286.00
2022-08-29T04:14:31.836Z,98294.00
2022-08-29T04:18:32.821Z,98299.00
2022-08-29T04:22:36.036Z,98302.00
2022-08-29T04:26:40.437Z,98303.00
2022-08-29T04:30:51.770Z,98317.00
2022-08-29T04:34:50.029Z,98309.00
2022-08-29T04:38:51.001Z,98306.00
2022-08-29T04:42:51.908Z,98307.00
2022-08-29T04:46:52.958Z,98307.00
2022-08-29T04:50:59.665Z,98307.00
2022-08-29T04:55:00.651Z,98308.00
2022-08-29T04:59:01.550Z,98290.00
2022-08-29T05:03:03.280Z,98309.00
2022-08-29T05:07:04.689Z,98322.00
2022-08-29T05:11:16.253Z,98322.00
2022-08-29T05:15:19.157Z,98326.00
2022-08-29T05:19:20.270Z,98317.00
2022-08-29T05:23:21.273Z,98324.00
2022-08-29T05:27:22.639Z,98332.00
2022-08-29T05:31:23.958Z,98335.00
2022-08-29T05:35:26.236Z,98333.00
2022-08-29T05:39:27.443Z,98339.00
2022-08-29T05:43:28.773Z,98335.00
2022-08-29T05:47:31.071Z,98336.00
2022-08-29T05:51:37.276Z,98334.00
2022-08-29T05:55:43.635Z,98332.00
2022-08-29T05:59:45.351Z,98323.00
2022-08-29T06:03:46.409Z,98322.00
2022-08-29T06:07:47.827Z,98327.00
2022-08-29T06:11:52.517Z,98329.00
2022-08-29T06:15:53.650Z,98331.00
2022-08-29T06:19:54.741Z,98344.00
2022-08-29T06:23:56.058Z,98337.00
2022-08-29T06:27:57.181Z,98337.00
2022-08-29T06:31:58.837Z,98335.00
2022-08-29T06:36:00.037Z,98348.00
2022-08-29T06:40:01.212Z,98340.00
2022-08-29T06:44:03.259Z,98358.00
2022-08-29T06:48:04.647Z,98355.00
2022-08-29T06:52:05.921Z,98361.00
2022-08-29T06:56:11.447Z,98363.00
2022-08-29T07:00:22.147Z,98360.00
2022-08-29T07:04:16.690Z,98367.00
2022-08-29T07:08:20.638Z,98372.00
2022-08-29T07:12:22.851Z,98369.00
2022-08-29T07:16:27.595Z,98369.00
2022-08-29T07:20:28.731Z,98367.00
2022-08-29T07:24:29.995Z,98372.00
2022-08-29T07:28:33.990Z,98375.00
2022-08-29T07:32:35.249Z,98370.00
2022-08-29T07:36:36.829Z,98369.00
2022-08-29T07:40:38.078Z,98367.00
2022-08-29T07:44:39.231Z,98374.00
2022-08-29T07:48:41.624Z,98376.00
2022-08-29T07:52:42.848Z,98370.00
2022-08-29T07:56:45.764Z,98371.00
2022-08-29T08:00:46.873Z,98344.00
2022-08-29T08:04:48.118Z,98369.00
2022-08-29T08:08:51.848Z,98370.00
2022-08-29T08:12:53.504Z,98376.00
2022-08-29T08:16:54.635Z,98371.00
2022-08-29T08:20:55.743Z,98368.00
2022-08-29T08:24:57.021Z,98371.00
2022-08-29T08:28:58.647Z,98364.00
2022-08-29T08:33:00.829Z,98363.00
2022-08-29T08:37:07.252Z,98360.00
2022-08-29T08:41:35.608Z,98361.00
2022-08-29T08:45:42.292Z,98364.00
2022-08-29T08:49:50.197Z,98375.00
2022-08-29T08:53:54.473Z,98377.00
2022-08-29T08:58:05.130Z,98366.00
2022-08-29T09:02:34.724Z,98377.00
2022-08-29T09:06:52.640Z,98377.00
2022-08-29T09:11:03.249Z,98381.00
2022-08-29T09:15:09.560Z,98383.00
2022-08-29T09:19:17.363Z,98383.00
2022-08-29T09:23:27.907Z,98384.00
2022-08-29T09:27:32.139Z,98379.00
2022-08-29T09:31:34.918Z,98381.00
2022-08-29T09:35:40.079Z,98378.00
2022-08-29T09:39:48.804Z,98376.00
2022-08-29T09:43:50.475Z,98378.00
2022-08-29T09:48:10.408Z,98376.00
2022-08-29T09:52:15.229Z,98382.00
2022-08-29T09:56:23.357Z,98377.00
2022-08-29T10:00:28.130Z,98376.00
2022-08-29T10:04:39.119Z,98371.00
2022-08-29T10:08:42.261Z,98371.00
2022-08-29T10:13:02.805Z,98380.00
2022-08-29T10:17:29.274Z,98378.00
2022-08-29T10:21:53.737Z,98379.00
2022-08-29T10:25:58.907Z,98373.00
2022-08-29T10:30:03.990Z,98378.00
2022-08-29T10:34:11.368Z,98379.00
2022-08-29T10:38:34.274Z,98367.00
2022-08-29T10:42:39.108Z,98309.00
2022-08-29T10:47:03.844Z,98372.00
2022-08-29T10:51:08.842Z,98367.00
2022-08-29T10:55:13.816Z,98359.00
2022-08-29T10:59:27.024Z,98363.00
2022-08-29T11:03:39.832Z,98356.00
2022-08-29T11:07:47.535Z,98357.00
2022-08-29T11:12:09.277Z,98358.00
2022-08-29T11:16:23.531Z,98356.00
2022-08-29T11:20:35.288Z,98343.00
2022-08-29T11:24:40.051Z,98341.00
2022-08-29T11:28:46.049Z,98345.00
2022-08-29T11:33:06.394Z,98335.00
2022-08-29T11:37:23.650Z,98350.00
2022-08-29T11:41:32.096Z,98333.00
2022-08-29T11:45:37.943Z,98334.00
2022-08-29T11:49:42.498Z,98320.00
2022-08-29T11:53:43.964Z,98323.00
2022-08-29T11:57:52.049Z,98331.00
2022-08-29T12:02:17.198Z,98322.00
2022-08-29T12:06:37.561Z,98318.00
2022-08-29T12:10:54.719Z,98316.00
2022-08-29T12:14:56.376Z,98310.00
2022-08-29T12:18:57.563Z,98309.00
2022-08-29T12:23:08.585Z,98293.00
2022-08-29T12:27:41.933Z,98293.00
2022-08-29T12:32:02.086Z,98296.00
2022-08-29T12:36:02.903Z,98184.00
2022-08-29T12:40:22.685Z,98237.00
2022-08-29T12:44:30.451Z,98294.00
2022-08-29T12:48:37.176Z,98290.00
2022-08-29T12:52:38.416Z,98287.00
2022-08-29T12:56:43.121Z,98287.00
2022-08-29T13:00:48.065Z,98272.00
2022-08-29T13:04:49.174Z,98275.00
2022-08-29T13:08:50.228Z,98260.00
2022-08-29T13:12:51.462Z,98259.00
2022-08-29T13:16:54.361Z,98250.00
2022-08-29T13:21:05.362Z,98253.00
2022-08-29T13:25:06.804Z,98245.00
2022-08-29T13:33:36.759Z,98253.00
2022-08-29T13:37:40.177Z,98251.00
2022-08-29T13:41:47.218Z,98246.00
2022-08-29T13:45:48.191Z,98256.00
2022-08-29T13:49:50.700Z,98247.00
2022-08-29T13:53:52.964Z,98243.00
2022-08-29T13:57:55.164Z,98241.00
2022-08-29T14:02:12.369Z,98241.00
2022-08-29T14:05:59.813Z,98245.00
2022-08-29T14:10:00.955Z,98235.00
2022-08-29T14:14:02.009Z,98236.00
2022-08-29T14:18:03.594Z,98229.00
2022-08-29T14:22:04.506Z,98224.00
2022-08-29T14:26:05.662Z,98228.00
2022-08-29T14:30:10.489Z,98225.00
2022-08-29T14:34:11.777Z,98225.00
2022-08-29T14:38:12.888Z,98217.00
2022-08-29T14:42:14.212Z,98219.00
2022-08-29T14:46:15.150Z,98216.00
2022-08-29T14:50:16.415Z,98222.00
2022-08-29T14:54:18.673Z,98210.00
2022-08-29T14:58:19.607Z,98219.00
2022-08-29T15:02:20.623Z,98217.00
2022-08-29T15:06:21.909Z,98207.00
2022-08-29T15:10:24.420Z,98212.00
2022-08-29T15:14:25.532Z,98206.00
2022-08-29T15:19:05.598Z,98219.00
2022-08-29T15:22:29.338Z,98217.00
2022-08-29T15:26:30.584Z,98203.00
2022-08-29T15:30:33.421Z,98202.00
2022-08-29T15:34:34.749Z,98204.00
2022-08-29T15:38:35.754Z,98191.00
2022-08-29T15:42:38.109Z,98193.00
2022-08-29T15:46:39.662Z,98201.00
2022-08-29T15:50:42.468Z,98196.00
2022-08-29T15:54:43.635Z,98196.00
2022-08-29T15:58:44.919Z,98190.00
2022-08-29T16:02:46.648Z,98186.00
2022-08-29T16:06:48.924Z,98191.00
2022-08-29T16:10:51.843Z,98187.00
2022-08-29T16:15:01.229Z,98179.00
2022-08-29T16:18:56.348Z,98194.00
2022-08-29T16:22:58.970Z,98176.00
2022-08-29T16:26:59.973Z,98185.00
2022-08-29T16:31:01.700Z,98176.00
2022-08-29T16:35:05.713Z,98187.00
2022-08-29T16:39:06.749Z,98186.00
2022-08-29T16:43:07.763Z,98179.00
2022-08-29T16:47:09.957Z,98174.00
2022-08-29T16:51:11.801Z,98181.00
2022-08-29T16:55:14.646Z,98169.00
2022-08-29T16:59:15.658Z,98177.00
2022-08-29T17:03:20.017Z,98171.00
2022-08-29T17:07:19.430Z,98172.00
2022-08-29T17:11:20.829Z,98161.00
2022-08-29T17:15:21.902Z,98167.00
2022-08-29T17:19:23.838Z,98162.00
2022-08-29T17:23:30.300Z,98171.00
2022-08-29T17:27:31.357Z,98166.00
2022-08-29T17:31:33.482Z,98169.00
2022-08-29T17:35:35.637Z,98168.00
2022-08-29T17:39:39.983Z,98168.00
2022-08-29T17:43:41.010Z,98171.00
2022-08-29T17:47:42.066Z,98175.00
2022-08-29T17:51:43.654Z,98179.00
2022-08-29T17:55:47.239Z,98170.00
2022-08-29T17:59:48.491Z,98179.00
2022-08-29T18:03:51.787Z,98177.00
2022-08-29T18:07:53.759Z,98180.00
2022-08-29T18:11:57.555Z,98174.00
2022-08-29T18:15:58.682Z,98180.00
2022-08-29T18:20:00.586Z,98189.00
2022-08-29T18:24:03.015Z,98189.00
2022-08-29T18:28:06.038Z,98194.00
2022-08-29T18:32:07.051Z,98193.00
2022-08-29T18:36:09.655Z,98199.00
2022-08-29T18:40:11.229Z,98193.00
2022-08-29T18:44:12.222Z,98197.00
2022-08-29T18:48:13.813Z,98197.00
2022-08-29T18:52:15.012Z,98203.00
2022-08-29T18:56:16.138Z,98214.00
2022-08-29T19:00:17.658Z,98214.00
2022-08-29T19:04:23.427Z,98224.00
2022-08-29T19:08:26.949Z,98221.00
2022-08-29T19:12:28.250Z,98224.00
2022-08-29T19:16:31.175Z,98236.00
2022-08-29T19:20:51.434Z,98232.00
2022-08-29T19:24:52.446Z,98241.00
2022-08-29T19:28:56.750Z,98246.00
2022-08-29T19:32:57.533Z,98245.00
2022-08-29T19:36:59.275Z,98248.00
2022-08-29T19:41:00.631Z,98245.00
2022-08-29T19:45:03.331Z,98243.00
2022-08-29T19:49:07.727Z,98243.00
2022-08-29T19:53:09.148Z,98245.00
2022-08-29T19:57:13.435Z,98245.00
2022-08-29T20:01:13.219Z,98246.00
2022-08-29T20:05:14.685Z,98241.00
2022-08-29T20:09:15.926Z,98246.00
2022-08-29T20:13:17.756Z,98249.00
2022-08-29T20:17:21.323Z,98245.00
2022-08-29T20:21:23.425Z,98246.00
2022-08-29T20:25:25.118Z,98245.00
2022-08-29T20:29:26.753Z,98250.00
2022-08-29T20:33:28.631Z,98242.00
2022-08-29T20:37:30.668Z,98251.00
2022-08-29T20:41:32.063Z,98253.00
2022-08-29T20:45:33.800Z,98253.00
2022-08-29T20:49:35.808Z,98258.00
2022-08-29T20:53:37.999Z,98256.00
2022-08-29T20:57:39.755Z,98262.00
2022-08-29T21:01:42.730Z,98270.00
2022-08-29T21:05:44.613Z,98261.00
2022-08-29T21:09:49.199Z,98274.00
2022-08-29T21:13:53.308Z,98275.00
2022-08-29T21:17:54.303Z,98278.00
2022-08-29T21:21:59.937Z,98275.00
2022-08-29T21:26:01.983Z,98280.00
2022-08-29T21:30:04.037Z,98275.00
2022-08-29T21:34:09.815Z,98283.00
2022-08-29T21:38:11.191Z,98271.00
2022-08-29T21:42:12.347Z,98266.00
2022-08-29T21:46:16.712Z,98261.00
2022-08-29T21:54:27.641Z,98254.00
2022-08-29T21:58:29.120Z,98261.00
2022-08-29T22:02:31.350Z,98279.00
2022-08-29T22:06:35.130Z,98278.00
2022-08-29T22:10:37.839Z,98281.00
2022-08-29T22:14:57.349Z,98278.00
2022-08-29T22:19:13.287Z,98275.00
2022-08-29T22:23:17.504Z,98289.00
2022-08-29T22:27:19.448Z,98282.00
2022-08-29T22:31:20.651Z,98281.00
2022-08-29T22:35:22.110Z,98288.00
2022-08-29T22:39:23.325Z,98280.00
2022-08-29T22:43:24.449Z,98278.00
2022-08-29T22:47:25.872Z,98267.00
2022-08-29T22:51:28.483Z,98282.00
2022-08-29T22:59:32.776Z,98271.00
2022-08-29T23:03:33.972Z,98281.00
2022-08-29T23:07:35.099Z,98273.00
2022-08-29T23:11:36.619Z,98270.00
2022-08-29T23:15:39.550Z,98269.00
2022-08-29T23:19:41.473Z,98275.00
2022-08-29T23:23:44.280Z,98278.00
2022-08-29T23:27:45.551Z,98278.00
2022-08-29T23:31:46.826Z,98265.00
2022-08-29T23:35:47.907Z,98284.00
2022-08-29T23:39:50.191Z,98282.00
2022-08-29T23:43:51.404Z,98275.00
2022-08-29T23:47:54.422Z,98267.00
2022-08-29T23:51:55.390Z,98282.00
2022-08-29T23:55:56.459Z,98271.00
